Miley Memorial field
KBPI : now visible

Airfield :











YOU CAN JOIN US ON...

 
LOGIN :

Register | Disclaimer

   EN    FR    IT 

 









Legend :    VFR   Marginal VFR   IFR   Intensive IFR   Very Intensive IFR
Visi :
Ceiling :
>= 8 km
>= 3000ft
5 to 8 km
1000 to 3000 ft
1500m to 5 km
500 to 1000 ft
800 to 1500m
200 to 500 ft
< 800m
< 200 ft
Symbols :   Thunderstorms  Fog  Heavy snow  Heavy precipitations  Wind > 20 kt






- Airport Elevation : 6990 ft


KBPI - Miley Memorial field

CURRENT METAR :
  • 041653Z AUTO 18005KT 10SM CLR 23/01 A3027 RMK AO2 SLP147 T02330006

EXPIRED METARs :
  • 041553Z AUTO VRB05KT 10SM CLR 20/02 A3028 RMK AO2 SLP153 T02000022
  • 041453Z AUTO 08005KT 10SM CLR 17/02 A3029 RMK AO2 SLP154 T01720022 51011

TAF KBPI
Valid from the 04 at 12:00 until the 05 at 12:00 UTC


041127Z 0412/0512 VRB05KT P6SM SKC
FM042000 30017G25KT P6SM SKC
FM050400 35008KT P6SM SKC
KZLC FIR / North America



MET'MAP, your aeronautical weather chart ! - Copyright ORBIFLY December 2007 - Disclaimer

ORBIFLY MET'MAP TEAM :

Programming & Development : Alexandra Zaïnal
Concept & original design : Baudouin d'Aumeries
Assistance for programming : Marc-Olivier Méhu
Technical & hardware support : Manuel Goepfert

Contact : metmap@orbifly.com




SOURCES & CREDITS :

   NOAA       Earth
Advisory